createdAt,value
2019-02-06T00:01:32.829Z,2.80
2019-02-06T00:04:02.704Z,2.80
2019-02-06T00:06:32.645Z,2.70
2019-02-06T00:09:04.581Z,2.70
2019-02-06T00:11:35.113Z,2.60
2019-02-06T00:14:05.383Z,2.60
2019-02-06T00:16:35.664Z,2.60
2019-02-06T00:19:05.814Z,2.60
2019-02-06T00:21:36.400Z,2.50
2019-02-06T00:24:07.340Z,2.50
2019-02-06T00:26:37.244Z,2.40
2019-02-06T00:29:07.068Z,2.40
2019-02-06T00:31:37.384Z,2.40
2019-02-06T00:34:07.296Z,2.40
2019-02-06T00:36:37.313Z,2.40
2019-02-06T00:39:10.501Z,2.40
2019-02-06T00:41:40.467Z,2.40
2019-02-06T00:44:10.439Z,2.30
2019-02-06T00:46:40.247Z,2.20
2019-02-06T00:49:10.276Z,2.20
2019-02-06T00:51:39.886Z,2.20
2019-02-06T00:54:09.780Z,2.20
2019-02-06T00:56:39.389Z,2.20
2019-02-06T00:59:09.427Z,2.10
2019-02-06T01:01:39.099Z,2.10
2019-02-06T01:04:09.332Z,2.10
2019-02-06T01:06:38.973Z,2.10
2019-02-06T01:09:10.710Z,2.00
2019-02-06T01:11:40.304Z,1.90
2019-02-06T01:14:09.916Z,1.90
2019-02-06T01:16:39.716Z,1.90
2019-02-06T01:19:09.833Z,1.90
2019-02-06T01:21:39.724Z,1.90
2019-02-06T01:24:09.457Z,1.90
2019-02-06T01:26:39.008Z,1.80
2019-02-06T01:29:08.624Z,1.80
2019-02-06T01:31:38.476Z,1.80
2019-02-06T01:34:08.624Z,1.80
2019-02-06T01:36:38.415Z,1.80
2019-02-06T01:39:12.733Z,1.80
2019-02-06T01:41:42.342Z,1.80
2019-02-06T01:44:11.884Z,1.80
2019-02-06T01:46:41.748Z,1.80
2019-02-06T01:49:11.280Z,1.70
2019-02-06T01:51:41.167Z,1.70
2019-02-06T01:54:10.736Z,1.70
2019-02-06T01:56:40.676Z,1.70
2019-02-06T01:59:10.391Z,1.60
2019-02-06T02:01:40.140Z,1.60
2019-02-06T02:04:09.785Z,1.50
2019-02-06T02:06:39.620Z,1.50
2019-02-06T02:09:18.752Z,1.50
2019-02-06T02:11:48.870Z,1.50
2019-02-06T02:14:18.781Z,1.50
2019-02-06T02:16:48.627Z,1.50
2019-02-06T02:19:18.445Z,1.40
2019-02-06T02:21:48.076Z,1.40
2019-02-06T02:24:17.651Z,1.40
2019-02-06T02:26:47.470Z,1.40
2019-02-06T02:29:17.345Z,1.40
2019-02-06T02:31:47.464Z,1.40
2019-02-06T02:34:17.056Z,1.50
2019-02-06T02:36:46.626Z,1.50
2019-02-06T02:39:16.588Z,1.40
2019-02-06T02:41:46.234Z,1.40
2019-02-06T02:44:15.787Z,1.50
2019-02-06T02:46:45.352Z,1.40
2019-02-06T02:49:15.152Z,1.50
2019-02-06T02:51:45.141Z,1.50
2019-02-06T02:54:14.814Z,1.40
2019-02-06T02:56:44.447Z,1.40
2019-02-06T02:59:14.180Z,1.40
2019-02-06T03:01:54.018Z,1.40
2019-02-06T03:04:40.176Z,1.40
2019-02-06T03:07:09.880Z,1.40
2019-02-06T03:09:40.021Z,1.40
2019-02-06T03:12:09.934Z,1.40
2019-02-06T03:14:39.468Z,1.40
2019-02-06T03:17:24.825Z,1.40
2019-02-06T03:19:54.625Z,1.40
2019-02-06T03:22:24.436Z,1.40
2019-02-06T03:24:57.420Z,1.40
2019-02-06T03:27:27.001Z,1.40
2019-02-06T03:29:56.843Z,1.40
2019-02-06T03:32:26.453Z,1.40
2019-02-06T03:34:56.352Z,1.40
2019-02-06T03:37:26.171Z,1.50
2019-02-06T03:39:55.982Z,1.50
2019-02-06T03:42:26.095Z,1.50
2019-02-06T03:44:55.807Z,1.40
2019-02-06T03:47:25.617Z,1.40
2019-02-06T03:49:55.699Z,1.40
2019-02-06T03:52:25.456Z,1.40
2019-02-06T03:54:55.040Z,1.40
2019-02-06T03:57:24.701Z,1.40
2019-02-06T03:59:54.348Z,1.40
2019-02-06T04:02:24.177Z,1.40
2019-02-06T04:04:54.292Z,1.40
2019-02-06T04:07:24.517Z,1.40
2019-02-06T04:09:54.164Z,1.40
2019-02-06T04:12:23.833Z,1.40
2019-02-06T04:14:53.747Z,1.40
2019-02-06T04:17:23.296Z,1.40
2019-02-06T04:19:53.572Z,1.40
2019-02-06T04:22:23.110Z,1.40
2019-02-06T04:24:53.399Z,1.40
2019-02-06T04:27:22.936Z,1.30
2019-02-06T04:29:53.429Z,1.30
2019-02-06T04:32:41.367Z,1.30
2019-02-06T04:35:12.029Z,1.30
2019-02-06T04:37:41.565Z,1.30
2019-02-06T04:40:18.320Z,1.20
2019-02-06T04:42:48.648Z,1.20
2019-02-06T04:45:18.865Z,1.20
2019-02-06T04:47:48.402Z,1.20
2019-02-06T04:50:18.519Z,1.20
2019-02-06T04:52:48.352Z,1.20
2019-02-06T04:55:18.369Z,1.20
2019-02-06T04:57:48.352Z,1.20
2019-02-06T05:00:20.357Z,1.20
2019-02-06T05:02:50.277Z,1.20
2019-02-06T05:05:20.378Z,1.20
2019-02-06T05:07:50.085Z,1.20
2019-02-06T05:10:19.732Z,1.20
2019-02-06T05:12:49.600Z,1.20
2019-02-06T05:15:19.621Z,1.20
2019-02-06T05:17:49.245Z,1.20
2019-02-06T05:20:35.352Z,1.20
2019-02-06T05:23:05.348Z,1.20
2019-02-06T05:25:35.351Z,1.20
2019-02-06T05:28:05.684Z,1.20
2019-02-06T05:30:35.264Z,1.30
2019-02-06T05:33:05.240Z,1.20
2019-02-06T05:35:34.897Z,1.20
2019-02-06T05:38:04.923Z,1.20
2019-02-06T05:40:34.529Z,1.20
2019-02-06T05:43:04.456Z,1.20
2019-02-06T05:45:34.144Z,1.20
2019-02-06T05:48:03.790Z,1.20
2019-02-06T05:50:33.489Z,1.20
2019-02-06T05:53:03.100Z,1.20
2019-02-06T05:55:32.632Z,1.20
2019-02-06T05:58:02.594Z,1.20
2019-02-06T06:00:36.337Z,1.20
2019-02-06T06:03:06.420Z,1.10
2019-02-06T06:05:36.222Z,1.10
2019-02-06T06:08:06.232Z,1.10
2019-02-06T06:10:35.806Z,1.10
2019-02-06T06:13:05.452Z,1.10
2019-02-06T06:15:35.361Z,1.10
2019-02-06T06:18:05.480Z,1.00
2019-02-06T06:20:35.105Z,1.00
2019-02-06T06:23:04.719Z,1.00
2019-02-06T06:25:34.482Z,1.10
2019-02-06T06:28:04.414Z,1.10
2019-02-06T06:30:34.033Z,1.10
2019-02-06T06:33:03.833Z,1.10
2019-02-06T06:35:33.750Z,1.10
2019-02-06T06:38:03.314Z,1.10
2019-02-06T06:40:32.916Z,1.10
2019-02-06T06:43:02.774Z,1.10
2019-02-06T06:45:32.503Z,1.10
2019-02-06T06:48:02.032Z,1.10
2019-02-06T06:50:31.896Z,1.10
2019-02-06T06:53:01.715Z,1.10
2019-02-06T06:55:31.404Z,1.10
2019-02-06T06:58:01.251Z,1.10
2019-02-06T07:00:31.712Z,1.10
2019-02-06T07:03:01.566Z,1.00
2019-02-06T07:05:31.168Z,1.00
2019-02-06T07:08:09.195Z,1.00
2019-02-06T07:10:32.316Z,1.00
2019-02-06T07:13:01.897Z,1.00
2019-02-06T07:15:33.741Z,1.00
2019-02-06T07:18:05.765Z,1.00
2019-02-06T07:20:35.979Z,1.00
2019-02-06T07:23:05.992Z,1.00
2019-02-06T07:25:35.844Z,1.00
2019-02-06T07:28:05.748Z,1.00
2019-02-06T07:30:37.557Z,1.00
2019-02-06T07:33:07.488Z,1.00
2019-02-06T07:35:37.401Z,1.10
2019-02-06T07:38:06.957Z,1.10
2019-02-06T07:40:36.820Z,1.10
2019-02-06T07:43:07.144Z,1.10
2019-02-06T07:45:36.960Z,1.10
2019-02-06T07:48:06.567Z,1.20
2019-02-06T07:50:36.693Z,1.20
2019-02-06T07:53:06.295Z,1.20
2019-02-06T07:55:36.446Z,1.20
2019-02-06T07:58:06.730Z,1.20
2019-02-06T08:00:36.641Z,1.30
2019-02-06T08:03:06.979Z,1.30
2019-02-06T08:05:37.361Z,1.30
2019-02-06T08:08:07.300Z,1.30
2019-02-06T08:10:38.840Z,1.40
2019-02-06T08:13:08.747Z,1.40
2019-02-06T08:15:38.781Z,1.40
2019-02-06T08:18:09.001Z,1.50
2019-02-06T08:20:39.133Z,1.50
2019-02-06T08:23:08.736Z,1.50
2019-02-06T08:25:38.944Z,1.50
2019-02-06T08:28:08.648Z,1.60
2019-02-06T08:30:40.033Z,1.60
2019-02-06T08:33:10.328Z,1.70
2019-02-06T08:35:39.954Z,1.70
2019-02-06T08:38:10.260Z,1.80
2019-02-06T08:40:41.100Z,1.80
2019-02-06T08:43:22.298Z,1.80
2019-02-06T08:45:59.060Z,1.90
2019-02-06T08:48:28.600Z,2.00
2019-02-06T08:50:59.800Z,2.00
2019-02-06T08:53:30.112Z,2.00
2019-02-06T08:56:00.030Z,2.00
2019-02-06T08:58:54.209Z,2.10
2019-02-06T09:01:23.803Z,2.10
2019-02-06T09:03:53.565Z,2.10
2019-02-06T09:06:23.445Z,2.20
2019-02-06T09:08:59.722Z,2.20
2019-02-06T09:11:24.519Z,2.30
2019-02-06T09:13:54.152Z,2.30
2019-02-06T09:16:24.426Z,2.30
2019-02-06T09:19:00.639Z,2.40
2019-02-06T09:21:30.601Z,2.50
2019-02-06T09:24:00.420Z,2.50
2019-02-06T09:26:33.956Z,2.60
2019-02-06T09:29:01.680Z,2.60
2019-02-06T09:31:31.572Z,2.70
2019-02-06T09:34:01.400Z,2.80
2019-02-06T09:36:31.717Z,2.80
2019-02-06T09:39:11.341Z,2.80
2019-02-06T09:41:32.928Z,2.80
2019-02-06T09:44:02.476Z,2.90
2019-02-06T09:46:32.294Z,3.00
2019-02-06T09:49:02.101Z,3.10
2019-02-06T09:51:32.602Z,3.20
2019-02-06T09:54:02.445Z,3.20
2019-02-06T09:56:32.257Z,3.30
2019-02-06T09:59:02.061Z,3.30
2019-02-06T10:01:31.608Z,3.40
2019-02-06T10:04:12.239Z,3.40
2019-02-06T10:06:42.153Z,3.50
2019-02-06T10:09:22.293Z,3.60
2019-02-06T10:11:43.613Z,3.60
2019-02-06T10:14:20.588Z,3.70
2019-02-06T10:16:50.912Z,3.80
2019-02-06T10:19:20.463Z,3.80
2019-02-06T10:21:53.596Z,3.80
2019-02-06T10:24:22.191Z,3.90
2019-02-06T10:26:52.105Z,3.90
2019-02-06T10:29:21.925Z,3.60
2019-02-06T10:31:52.242Z,4.00
2019-02-06T10:34:21.775Z,4.10
2019-02-06T10:37:29.972Z,4.20
2019-02-06T10:39:59.865Z,4.20
2019-02-06T10:42:29.625Z,4.30
2019-02-06T10:44:59.606Z,4.40
2019-02-06T10:47:39.547Z,4.40
2019-02-06T10:50:10.805Z,4.50
2019-02-06T10:52:40.968Z,4.50
2019-02-06T10:55:13.580Z,4.50
2019-02-06T10:57:43.597Z,4.50
2019-02-06T11:00:17.500Z,4.60
2019-02-06T11:02:47.417Z,4.60
2019-02-06T11:05:17.951Z,4.60
2019-02-06T11:07:47.966Z,4.60
2019-02-06T11:10:18.597Z,4.70
2019-02-06T11:12:48.608Z,4.80
2019-02-06T11:15:18.726Z,4.80
2019-02-06T11:17:48.615Z,4.80
2019-02-06T11:20:19.634Z,4.90
2019-02-06T11:22:49.253Z,5.00
2019-02-06T11:25:19.403Z,5.10
2019-02-06T11:27:49.098Z,5.10
2019-02-06T11:30:21.385Z,5.10
2019-02-06T11:32:52.008Z,5.20
2019-02-06T11:35:21.821Z,5.20
2019-02-06T11:37:51.629Z,5.20
2019-02-06T11:40:22.971Z,5.30
2019-02-06T11:42:53.097Z,5.30
2019-02-06T11:45:26.292Z,5.30
2019-02-06T11:47:55.969Z,5.40
2019-02-06T11:50:33.479Z,5.50
2019-02-06T11:53:07.437Z,5.50
2019-02-06T11:55:37.135Z,5.50
2019-02-06T11:58:07.737Z,5.50
2019-02-06T12:01:10.419Z,5.60
2019-02-06T12:03:40.336Z,5.70
2019-02-06T12:06:10.649Z,5.70
2019-02-06T12:08:40.561Z,5.70
2019-02-06T12:11:10.780Z,5.70
2019-02-06T12:13:41.007Z,5.60
2019-02-06T12:16:28.380Z,5.70
2019-02-06T12:18:58.451Z,5.70
2019-02-06T12:21:27.980Z,5.80
2019-02-06T12:23:57.884Z,5.80
2019-02-06T12:26:27.566Z,5.80
2019-02-06T12:29:09.228Z,5.90
2019-02-06T12:31:39.234Z,5.90
2019-02-06T12:34:09.187Z,5.90
2019-02-06T12:36:38.822Z,6.00
2019-02-06T12:39:14.689Z,6.00
2019-02-06T12:41:44.223Z,6.00
2019-02-06T12:44:14.064Z,6.00
2019-02-06T12:46:44.288Z,6.00
2019-02-06T12:50:08.298Z,6.00
2019-02-06T12:52:37.917Z,6.00
2019-02-06T12:55:10.581Z,6.00
2019-02-06T12:57:40.569Z,6.00
2019-02-06T13:00:15.088Z,6.00
2019-02-06T13:02:44.644Z,6.00
2019-02-06T13:05:14.913Z,6.10
2019-02-06T13:07:44.616Z,6.10
2019-02-06T13:10:14.844Z,6.10
2019-02-06T13:12:44.661Z,6.10
2019-02-06T13:15:14.641Z,6.10
2019-02-06T13:17:44.884Z,6.10
2019-02-06T13:20:21.071Z,6.10
2019-02-06T13:22:51.155Z,6.10
2019-02-06T13:25:21.033Z,6.20
2019-02-06T13:27:50.675Z,6.20
2019-02-06T13:30:25.664Z,6.30
2019-02-06T13:32:55.984Z,6.30
2019-02-06T13:35:25.540Z,6.30
2019-02-06T13:37:55.204Z,6.30
2019-02-06T13:40:26.296Z,6.40
2019-02-06T13:42:56.388Z,6.40
2019-02-06T13:45:28.896Z,6.50
2019-02-06T13:48:13.550Z,6.50
2019-02-06T13:50:43.569Z,6.50
2019-02-06T13:53:13.184Z,6.60
2019-02-06T13:55:43.196Z,6.60
2019-02-06T13:58:37.517Z,6.50
2019-02-06T14:01:07.513Z,6.50
2019-02-06T14:03:37.396Z,6.50
2019-02-06T14:06:07.625Z,6.40
2019-02-06T14:08:39.406Z,6.40
2019-02-06T14:11:09.399Z,6.40
2019-02-06T14:13:39.512Z,6.40
2019-02-06T14:16:10.069Z,6.30
2019-02-06T14:18:39.953Z,6.30
2019-02-06T14:21:36.215Z,6.30
2019-02-06T14:24:25.244Z,6.30
2019-02-06T14:27:30.077Z,6.20
2019-02-06T14:30:42.668Z,6.10
2019-02-06T14:33:56.288Z,6.10
2019-02-06T14:36:59.108Z,6.00
2019-02-06T14:39:44.381Z,5.90
2019-02-06T14:42:36.894Z,5.90
2019-02-06T14:45:56.804Z,5.90
2019-02-06T14:48:50.508Z,5.80
2019-02-06T14:51:50.501Z,5.80
2019-02-06T14:54:56.870Z,5.80
2019-02-06T14:57:56.276Z,5.80
2019-02-06T15:00:46.860Z,5.80
2019-02-06T15:03:45.016Z,5.80
2019-02-06T15:06:57.759Z,5.80
2019-02-06T15:10:08.944Z,5.80
2019-02-06T15:13:28.413Z,5.80
2019-02-06T15:16:51.034Z,5.80
2019-02-06T15:19:59.805Z,5.80
2019-02-06T15:23:32.999Z,5.80
2019-02-06T15:26:23.929Z,5.80
2019-02-06T15:29:41.018Z,5.80
2019-02-06T15:32:53.881Z,5.80
2019-02-06T15:36:25.979Z,5.70
2019-02-06T15:39:26.290Z,5.70
2019-02-06T15:42:29.234Z,5.60
2019-02-06T15:45:22.816Z,5.60
2019-02-06T15:48:38.881Z,5.60
2019-02-06T15:51:49.353Z,5.50
2019-02-06T15:54:40.009Z,5.50
2019-02-06T15:57:35.973Z,5.50
2019-02-06T16:00:34.144Z,5.40
2019-02-06T16:03:16.892Z,5.30
2019-02-06T16:06:37.769Z,5.30
2019-02-06T16:09:47.004Z,5.20
2019-02-06T16:12:32.068Z,5.20
2019-02-06T16:15:44.713Z,5.10
2019-02-06T16:18:37.284Z,5.00
2019-02-06T16:21:57.829Z,5.00
2019-02-06T16:24:54.672Z,4.90
2019-02-06T16:27:50.289Z,4.80
2019-02-06T16:30:51.229Z,4.80
2019-02-06T16:33:50.133Z,4.70
2019-02-06T16:36:45.160Z,4.70
2019-02-06T16:39:31.225Z,4.60
2019-02-06T16:42:42.192Z,4.50
2019-02-06T16:45:51.446Z,4.40
2019-02-06T16:49:14.389Z,4.30
2019-02-06T16:52:10.613Z,4.20
2019-02-06T16:55:12.484Z,4.20
2019-02-06T16:58:24.684Z,4.10
2019-02-06T17:01:44.769Z,4.10
2019-02-06T17:04:41.265Z,4.10
2019-02-06T17:07:51.984Z,4.10
2019-02-06T17:10:57.812Z,4.00
2019-02-06T17:14:04.200Z,4.00
2019-02-06T17:17:01.508Z,4.00
2019-02-06T17:19:52.880Z,3.90
2019-02-06T17:23:05.412Z,3.90
2019-02-06T17:25:57.900Z,3.90
2019-02-06T17:28:50.447Z,3.80
2019-02-06T17:31:47.421Z,3.80
2019-02-06T17:34:58.403Z,3.70
2019-02-06T17:38:05.454Z,3.70
2019-02-06T17:41:09.496Z,3.70
2019-02-06T17:44:31.208Z,3.60
2019-02-06T17:47:15.682Z,3.60
2019-02-06T17:50:26.445Z,3.50
2019-02-06T17:53:27.997Z,3.50
2019-02-06T17:55:57.913Z,3.40
2019-02-06T17:58:30.802Z,3.30
2019-02-06T18:01:17.357Z,3.30
2019-02-06T18:03:57.404Z,3.20
2019-02-06T18:06:27.668Z,3.20
2019-02-06T18:09:13.287Z,3.20
2019-02-06T18:11:43.213Z,3.10
2019-02-06T18:14:13.083Z,3.10
2019-02-06T18:16:43.104Z,3.00
2019-02-06T18:19:12.909Z,3.00
2019-02-06T18:21:42.725Z,2.90
2019-02-06T18:24:12.568Z,2.90
2019-02-06T18:26:45.144Z,2.90
2019-02-06T18:29:14.781Z,2.90
2019-02-06T18:31:44.544Z,2.90
2019-02-06T18:34:14.231Z,2.80
2019-02-06T18:36:43.840Z,2.80
2019-02-06T18:39:14.611Z,2.80
2019-02-06T18:41:44.689Z,2.70
2019-02-06T18:44:14.409Z,2.70
2019-02-06T18:46:45.437Z,2.70
2019-02-06T18:49:16.376Z,2.60
2019-02-06T18:51:46.157Z,2.50
2019-02-06T18:54:16.054Z,2.50
2019-02-06T18:56:46.072Z,2.50
2019-02-06T18:59:15.757Z,2.50
2019-02-06T19:01:45.681Z,2.50
2019-02-06T19:04:17.768Z,2.40
2019-02-06T19:06:49.558Z,2.40
2019-02-06T19:09:20.296Z,2.30
2019-02-06T19:11:49.945Z,2.30
2019-02-06T19:14:20.368Z,2.30
2019-02-06T19:16:56.479Z,2.20
2019-02-06T19:19:26.012Z,2.20
2019-02-06T19:21:55.608Z,2.20
2019-02-06T19:24:26.113Z,2.10
2019-02-06T19:27:03.096Z,2.10
2019-02-06T19:29:32.756Z,2.10
2019-02-06T19:32:02.717Z,2.00
2019-02-06T19:34:32.528Z,2.00
2019-02-06T19:37:02.344Z,2.00
2019-02-06T19:39:32.456Z,2.00
2019-02-06T19:42:02.273Z,2.00
2019-02-06T19:44:32.174Z,2.00
2019-02-06T19:47:01.940Z,2.00
2019-02-06T19:49:31.556Z,2.00
2019-02-06T19:52:01.560Z,2.10
2019-02-06T19:54:31.423Z,2.10
2019-02-06T19:57:01.237Z,2.10
2019-02-06T19:59:31.157Z,2.10
2019-02-06T20:02:00.865Z,2.10
2019-02-06T20:04:30.472Z,2.10
2019-02-06T20:07:00.041Z,2.10
2019-02-06T20:09:30.410Z,2.10
2019-02-06T20:12:00.072Z,2.10
2019-02-06T20:14:30.323Z,2.10
2019-02-06T20:17:00.256Z,2.10
2019-02-06T20:19:30.140Z,1.90
2019-02-06T20:22:00.166Z,1.80
2019-02-06T20:24:30.122Z,1.70
2019-02-06T20:26:59.716Z,1.80
2019-02-06T20:29:29.614Z,1.70
2019-02-06T20:31:59.512Z,1.70
2019-02-06T20:34:29.333Z,1.70
2019-02-06T20:36:58.992Z,1.60
2019-02-06T20:39:28.840Z,1.60
2019-02-06T20:41:58.381Z,1.60
2019-02-06T20:44:29.793Z,1.50
2019-02-06T20:46:59.255Z,1.50
2019-02-06T20:49:33.825Z,1.50
2019-02-06T20:52:10.184Z,1.50
2019-02-06T20:54:40.404Z,1.50
2019-02-06T20:57:13.755Z,1.40
2019-02-06T20:59:41.897Z,1.30
2019-02-06T21:02:11.793Z,1.30
2019-02-06T21:04:41.339Z,1.20
2019-02-06T21:07:11.209Z,1.20
2019-02-06T21:09:40.792Z,1.20
2019-02-06T21:12:10.336Z,1.30
2019-02-06T21:14:40.228Z,1.30
2019-02-06T21:17:10.142Z,1.30
2019-02-06T21:19:39.728Z,1.30
2019-02-06T21:22:09.663Z,1.30
2019-02-06T21:24:39.212Z,1.30
2019-02-06T21:27:09.081Z,1.30
2019-02-06T21:29:39.396Z,1.30
2019-02-06T21:32:08.957Z,1.20
2019-02-06T21:34:38.864Z,1.20
2019-02-06T21:37:09.046Z,1.20
2019-02-06T21:39:38.707Z,1.20
2019-02-06T21:42:08.557Z,1.20
2019-02-06T21:44:38.127Z,1.10
2019-02-06T21:47:08.185Z,1.20
2019-02-06T21:49:39.117Z,1.10
2019-02-06T21:52:09.034Z,1.10
2019-02-06T21:54:38.800Z,1.10
2019-02-06T21:57:08.649Z,1.10
2019-02-06T21:59:38.569Z,1.10
2019-02-06T22:02:08.841Z,1.10
2019-02-06T22:04:38.412Z,1.10
2019-02-06T22:07:08.513Z,1.10
2019-02-06T22:09:38.068Z,1.10
2019-02-06T22:12:07.607Z,1.10
2019-02-06T22:14:37.241Z,1.10
2019-02-06T22:17:06.858Z,1.10
2019-02-06T22:19:36.981Z,1.10
2019-02-06T22:22:07.172Z,1.20
2019-02-06T22:24:38.721Z,1.20
2019-02-06T22:27:08.536Z,1.20
2019-02-06T22:29:38.565Z,1.20
2019-02-06T22:32:08.473Z,1.20
2019-02-06T22:34:38.272Z,1.20
2019-02-06T22:37:08.169Z,1.20
2019-02-06T22:39:37.727Z,1.10
2019-02-06T22:42:07.513Z,1.10
2019-02-06T22:44:37.725Z,1.20
2019-02-06T22:47:07.941Z,1.20
2019-02-06T22:49:38.060Z,1.20
2019-02-06T22:52:07.928Z,1.20
2019-02-06T22:54:37.768Z,1.20
2019-02-06T22:57:07.597Z,1.20
2019-02-06T22:59:37.409Z,1.20
2019-02-06T23:02:07.933Z,1.20
2019-02-06T23:04:38.165Z,1.20
2019-02-06T23:07:08.349Z,1.20
2019-02-06T23:09:38.193Z,1.20
2019-02-06T23:12:08.700Z,1.20
2019-02-06T23:14:38.634Z,1.20
2019-02-06T23:17:08.648Z,1.10
2019-02-06T23:19:38.576Z,1.10
2019-02-06T23:22:08.676Z,1.20
2019-02-06T23:24:38.220Z,1.20
2019-02-06T23:27:08.102Z,1.10
2019-02-06T23:29:58.565Z,1.10
2019-02-06T23:32:28.392Z,1.10
2019-02-06T23:34:58.313Z,1.10
2019-02-06T23:37:28.126Z,1.10
2019-02-06T23:39:58.041Z,1.10
2019-02-06T23:42:27.648Z,1.10
2019-02-06T23:44:57.216Z,1.10
2019-02-06T23:47:27.164Z,1.00
2019-02-06T23:49:58.613Z,1.00
2019-02-06T23:52:28.416Z,1.00
2019-02-06T23:54:58.047Z,1.00
2019-02-06T23:57:27.808Z,1.10
2019-02-06T23:59:57.652Z,1.10
